createdAt,value
2022-08-26T00:02:08.362Z,70.73
2022-08-26T00:05:15.290Z,70.69
2022-08-26T00:08:22.562Z,70.77
2022-08-26T00:11:29.159Z,70.90
2022-08-26T00:14:35.419Z,70.90
2022-08-26T00:17:42.063Z,70.97
2022-08-26T00:20:48.511Z,70.96
2022-08-26T00:23:55.164Z,71.15
2022-08-26T00:27:01.429Z,71.04
2022-08-26T00:30:11.071Z,71.02
2022-08-26T00:33:17.584Z,71.06
2022-08-26T00:36:24.898Z,71.05
2022-08-26T00:39:35.836Z,71.09
2022-08-26T00:42:46.076Z,71.18
2022-08-26T00:45:56.851Z,71.24
2022-08-26T00:49:11.842Z,71.37
2022-08-26T00:52:21.194Z,71.45
2022-08-26T00:55:38.054Z,71.55
2022-08-26T00:58:45.504Z,71.50
2022-08-26T01:01:52.129Z,71.41
2022-08-26T01:05:01.329Z,71.38
2022-08-26T01:08:09.883Z,71.34
2022-08-26T01:11:16.925Z,71.39
2022-08-26T01:14:26.405Z,71.46
2022-08-26T01:17:33.844Z,71.44
2022-08-26T01:20:48.785Z,71.45
2022-08-26T01:23:57.467Z,71.56
2022-08-26T01:27:06.829Z,71.62
2022-08-26T01:30:15.486Z,71.64
2022-08-26T01:33:25.600Z,71.54
2022-08-26T01:36:32.161Z,71.68
2022-08-26T01:39:40.244Z,71.70
2022-08-26T01:42:49.289Z,71.73
2022-08-26T01:45:57.149Z,71.88
2022-08-26T01:49:07.837Z,71.95
2022-08-26T01:52:17.857Z,71.80
2022-08-26T01:55:33.176Z,71.90
2022-08-26T01:58:41.292Z,72.00
2022-08-26T02:01:47.876Z,72.03
2022-08-26T02:04:59.682Z,72.04
2022-08-26T02:08:06.586Z,72.00
2022-08-26T02:11:13.561Z,72.07
2022-08-26T02:14:24.111Z,72.17
2022-08-26T02:17:38.737Z,72.07
2022-08-26T02:20:45.102Z,72.21
2022-08-26T02:23:52.169Z,72.30
2022-08-26T02:26:59.426Z,72.37
2022-08-26T02:30:10.371Z,72.39
2022-08-26T02:33:17.107Z,72.52
2022-08-26T02:36:25.129Z,72.60
2022-08-26T02:39:37.035Z,72.61
2022-08-26T02:42:43.865Z,72.51
2022-08-26T02:45:50.021Z,72.51
2022-08-26T02:48:56.360Z,72.43
2022-08-26T02:52:02.549Z,72.63
2022-08-26T02:55:10.779Z,72.69
2022-08-26T02:58:17.041Z,72.61
2022-08-26T03:01:28.227Z,72.56
2022-08-26T03:04:34.995Z,72.75
2022-08-26T03:07:41.424Z,72.69
2022-08-26T03:10:48.076Z,72.62
2022-08-26T03:13:55.670Z,72.67
2022-08-26T03:17:01.886Z,72.65
2022-08-26T03:20:09.902Z,72.74
2022-08-26T03:23:16.106Z,72.75
2022-08-26T03:26:23.185Z,72.65
2022-08-26T03:29:49.459Z,72.77
2022-08-26T03:32:57.269Z,72.74
2022-08-26T03:36:04.166Z,72.81
2022-08-26T03:39:13.138Z,72.70
2022-08-26T03:42:21.485Z,72.93
2022-08-26T03:45:28.200Z,72.86
2022-08-26T03:48:34.617Z,72.92
2022-08-26T03:51:41.404Z,72.85
2022-08-26T03:54:48.314Z,72.87
2022-08-26T03:57:55.030Z,73.01
2022-08-26T04:01:02.020Z,72.96
2022-08-26T04:04:08.641Z,72.86
2022-08-26T04:07:15.424Z,72.91
2022-08-26T04:10:28.707Z,72.88
2022-08-26T04:13:36.228Z,73.04
2022-08-26T04:16:42.671Z,73.03
2022-08-26T04:19:49.314Z,73.08
2022-08-26T04:22:53.770Z,73.07
2022-08-26T04:26:01.337Z,73.25
2022-08-26T04:29:09.815Z,73.09
2022-08-26T04:32:16.453Z,73.12
2022-08-26T04:35:25.696Z,73.36
2022-08-26T04:38:32.691Z,73.35
2022-08-26T04:41:40.156Z,73.38
2022-08-26T04:44:46.562Z,73.32
2022-08-26T04:47:56.513Z,73.47
2022-08-26T04:51:03.315Z,73.66
2022-08-26T04:54:11.779Z,73.61
2022-08-26T04:57:17.998Z,73.52
2022-08-26T05:00:24.986Z,73.70
2022-08-26T05:03:32.493Z,73.68
2022-08-26T05:06:38.915Z,73.65
2022-08-26T05:09:45.529Z,73.69
2022-08-26T05:12:51.680Z,73.78
2022-08-26T05:16:01.200Z,73.71
2022-08-26T05:19:08.567Z,73.87
2022-08-26T05:22:15.013Z,74.03
2022-08-26T05:25:21.390Z,74.49
2022-08-26T05:28:29.749Z,74.84
2022-08-26T05:31:36.954Z,74.70
2022-08-26T05:34:43.134Z,74.39
2022-08-26T05:37:49.404Z,74.63
2022-08-26T05:40:55.559Z,74.95
2022-08-26T05:44:03.574Z,75.15
2022-08-26T05:47:09.893Z,75.12
2022-08-26T05:50:16.130Z,75.34
2022-08-26T05:53:23.992Z,75.05
2022-08-26T05:56:32.783Z,75.00
2022-08-26T05:59:38.942Z,75.01
2022-08-26T06:02:45.104Z,75.14
2022-08-26T06:05:54.891Z,75.07
2022-08-26T06:09:02.202Z,74.93
2022-08-26T06:12:08.987Z,75.13
2022-08-26T06:15:15.746Z,75.13
2022-08-26T06:18:24.003Z,75.19
2022-08-26T06:21:34.238Z,75.18
2022-08-26T06:24:58.087Z,75.19
2022-08-26T06:28:05.563Z,75.30
2022-08-26T06:31:11.863Z,75.38
2022-08-26T06:34:18.111Z,75.52
2022-08-26T06:37:24.246Z,75.36
2022-08-26T06:40:31.279Z,75.71
2022-08-26T06:43:37.569Z,75.39
2022-08-26T06:46:44.402Z,75.22
2022-08-26T06:49:51.046Z,75.18
2022-08-26T06:52:56.980Z,75.07
2022-08-26T06:56:06.947Z,75.31
2022-08-26T06:59:15.458Z,75.03
2022-08-26T07:02:21.756Z,74.73
2022-08-26T07:05:28.083Z,74.47
2022-08-26T07:08:35.977Z,74.14
2022-08-26T07:11:42.524Z,74.23
2022-08-26T07:14:48.698Z,73.73
2022-08-26T07:17:54.865Z,73.54
2022-08-26T07:21:03.858Z,73.49
2022-08-26T07:24:11.297Z,73.00
2022-08-26T07:27:18.719Z,72.97
2022-08-26T07:30:25.972Z,72.76
2022-08-26T07:33:32.328Z,72.16
2022-08-26T07:36:39.585Z,72.23
2022-08-26T07:39:45.902Z,72.02
2022-08-26T07:42:53.074Z,71.64
2022-08-26T07:45:59.347Z,71.04
2022-08-26T07:49:05.849Z,70.56
2022-08-26T07:52:12.878Z,70.34
2022-08-26T07:55:19.634Z,70.04
2022-08-26T07:58:25.824Z,69.70
2022-08-26T08:01:32.243Z,69.51
2022-08-26T08:04:39.439Z,69.16
2022-08-26T08:07:45.887Z,68.54
2022-08-26T08:10:52.787Z,68.11
2022-08-26T08:14:01.150Z,68.30
2022-08-26T08:17:07.571Z,68.02
2022-08-26T08:20:15.719Z,67.65
2022-08-26T08:23:21.892Z,67.29
2022-08-26T08:26:30.183Z,67.07
2022-08-26T08:29:37.419Z,66.50
2022-08-26T08:32:44.533Z,66.36
2022-08-26T08:35:50.910Z,66.22
2022-08-26T08:38:57.073Z,65.85
2022-08-26T08:42:31.359Z,65.15
2022-08-26T08:45:41.034Z,65.07
2022-08-26T08:48:52.788Z,64.72
2022-08-26T08:52:06.746Z,64.71
2022-08-26T08:55:18.014Z,64.62
2022-08-26T08:58:29.085Z,64.31
2022-08-26T09:01:48.221Z,63.74
2022-08-26T09:05:14.914Z,63.63
2022-08-26T09:08:28.616Z,63.37
2022-08-26T09:11:36.397Z,62.77
2022-08-26T09:14:51.119Z,62.71
2022-08-26T09:18:06.633Z,62.07
2022-08-26T09:21:17.916Z,61.56
2022-08-26T09:24:24.218Z,61.30
2022-08-26T09:27:44.614Z,60.55
2022-08-26T09:31:03.509Z,60.25
2022-08-26T09:34:19.379Z,60.17
2022-08-26T09:37:41.728Z,59.30
2022-08-26T09:40:59.437Z,59.03
2022-08-26T09:44:28.494Z,58.95
2022-08-26T09:47:39.350Z,58.10
2022-08-26T09:50:57.055Z,58.01
2022-08-26T09:54:05.770Z,57.78
2022-08-26T09:57:21.044Z,57.43
2022-08-26T10:00:34.831Z,57.13
2022-08-26T10:03:45.351Z,56.78
2022-08-26T10:07:00.881Z,56.70
2022-08-26T10:10:12.094Z,56.20
2022-08-26T10:13:24.459Z,56.30
2022-08-26T10:16:36.187Z,56.20
2022-08-26T10:19:56.868Z,55.49
2022-08-26T10:23:06.594Z,55.04
2022-08-26T10:26:17.899Z,54.90
2022-08-26T10:29:30.976Z,54.95
2022-08-26T10:32:42.351Z,54.50
2022-08-26T10:35:53.214Z,54.28
2022-08-26T10:39:04.854Z,53.71
2022-08-26T10:42:16.235Z,53.93
2022-08-26T10:45:25.660Z,53.41
2022-08-26T10:48:43.021Z,53.53
2022-08-26T10:51:58.075Z,53.00
2022-08-26T10:55:10.423Z,52.88
2022-08-26T10:58:37.920Z,52.62
2022-08-26T11:01:52.589Z,52.26
2022-08-26T11:05:03.122Z,51.97
2022-08-26T11:08:32.863Z,51.43
2022-08-26T11:11:48.982Z,50.93
2022-08-26T11:14:58.714Z,50.94
2022-08-26T11:18:08.131Z,50.69
2022-08-26T11:21:49.560Z,50.29
2022-08-26T11:25:16.399Z,50.00
2022-08-26T11:28:37.542Z,49.63
2022-08-26T11:31:58.723Z,48.97
2022-08-26T11:35:08.306Z,48.52
2022-08-26T11:38:23.220Z,47.63
2022-08-26T11:41:31.463Z,47.58
2022-08-26T11:44:49.073Z,47.47
2022-08-26T11:47:55.946Z,46.55
2022-08-26T11:51:05.149Z,46.43
2022-08-26T11:54:17.702Z,46.25
2022-08-26T11:57:43.562Z,45.61
2022-08-26T12:00:58.497Z,45.67
2022-08-26T12:04:07.615Z,45.28
2022-08-26T12:07:13.723Z,44.68
2022-08-26T12:10:30.770Z,44.63
2022-08-26T12:13:39.255Z,44.06
2022-08-26T12:16:45.701Z,44.08
2022-08-26T12:19:52.098Z,43.45
2022-08-26T12:22:59.275Z,43.55
2022-08-26T12:26:14.730Z,42.95
2022-08-26T12:29:29.259Z,42.59
2022-08-26T12:32:36.396Z,42.34
2022-08-26T12:35:43.354Z,42.28
2022-08-26T12:38:50.126Z,42.03
2022-08-26T12:41:58.115Z,41.58
2022-08-26T12:45:07.025Z,41.41
2022-08-26T12:48:14.997Z,41.15
2022-08-26T12:51:25.985Z,40.41
2022-08-26T12:54:46.162Z,40.42
2022-08-26T12:58:10.958Z,40.27
2022-08-26T13:01:24.558Z,40.38
2022-08-26T13:04:39.501Z,40.08
2022-08-26T13:07:44.030Z,40.21
2022-08-26T13:11:03.153Z,39.95
2022-08-26T13:14:15.870Z,40.13
2022-08-26T13:17:31.204Z,39.85
2022-08-26T13:20:44.290Z,39.90
2022-08-26T13:23:51.584Z,39.72
2022-08-26T13:26:57.826Z,39.47
2022-08-26T13:30:04.061Z,39.21
2022-08-26T13:33:12.264Z,39.00
2022-08-26T13:36:20.931Z,38.89
2022-08-26T13:39:27.770Z,38.90
2022-08-26T13:42:34.371Z,38.70
2022-08-26T13:45:41.096Z,38.92
2022-08-26T13:48:47.362Z,38.80
2022-08-26T13:51:53.441Z,38.19
2022-08-26T13:55:00.184Z,38.40
2022-08-26T13:58:06.695Z,38.03
2022-08-26T14:01:13.390Z,37.88
2022-08-26T14:04:22.453Z,38.02
2022-08-26T14:07:33.741Z,37.60
2022-08-26T14:10:40.019Z,37.84
2022-08-26T14:13:46.312Z,37.56
2022-08-26T14:17:00.091Z,37.36
2022-08-26T14:20:09.339Z,37.24
2022-08-26T14:23:16.164Z,37.05
2022-08-26T14:26:29.134Z,37.18
2022-08-26T14:29:36.031Z,37.04
2022-08-26T14:32:46.007Z,36.92
2022-08-26T14:35:52.245Z,36.96
2022-08-26T14:39:00.905Z,37.04
2022-08-26T14:42:09.169Z,37.02
2022-08-26T14:45:19.585Z,37.09
2022-08-26T14:48:25.720Z,37.20
2022-08-26T14:51:32.049Z,37.16
2022-08-26T14:54:38.927Z,37.23
2022-08-26T14:57:45.681Z,37.21
2022-08-26T15:00:51.932Z,37.06
2022-08-26T15:03:58.261Z,36.98
2022-08-26T15:07:05.266Z,37.10
2022-08-26T15:10:14.094Z,37.02
2022-08-26T15:13:20.326Z,36.88
2022-08-26T15:16:27.419Z,37.04
2022-08-26T15:19:33.773Z,36.69
2022-08-26T15:22:43.383Z,36.64
2022-08-26T15:25:49.560Z,36.74
2022-08-26T15:28:55.798Z,36.66
2022-08-26T15:32:01.994Z,36.55
2022-08-26T15:35:09.910Z,36.76
2022-08-26T15:38:16.120Z,36.41
2022-08-26T15:41:22.341Z,36.67
2022-08-26T15:44:28.806Z,36.63
2022-08-26T15:47:35.480Z,36.69
2022-08-26T15:51:02.668Z,36.75
2022-08-26T15:54:10.360Z,36.89
2022-08-26T15:57:19.123Z,36.72
2022-08-26T16:00:27.263Z,36.74
2022-08-26T16:03:33.541Z,37.02
2022-08-26T16:06:41.222Z,36.70
2022-08-26T16:09:49.197Z,37.10
2022-08-26T16:13:00.406Z,37.08
2022-08-26T16:16:07.197Z,37.23
2022-08-26T16:19:13.752Z,37.17
2022-08-26T16:22:20.054Z,37.47
2022-08-26T16:25:29.181Z,37.57
2022-08-26T16:28:35.386Z,37.54
2022-08-26T16:31:42.272Z,38.04
2022-08-26T16:34:56.187Z,38.04
2022-08-26T16:38:03.194Z,38.20
2022-08-26T16:41:10.460Z,38.06
2022-08-26T16:44:16.804Z,38.40
2022-08-26T16:47:23.329Z,38.34
2022-08-26T16:50:30.258Z,38.75
2022-08-26T16:53:36.301Z,39.10
2022-08-26T16:56:42.580Z,39.34
2022-08-26T16:59:48.728Z,40.09
2022-08-26T17:02:55.137Z,40.65
2022-08-26T17:06:01.550Z,41.05
2022-08-26T17:09:07.909Z,41.51
2022-08-26T17:12:14.159Z,41.97
2022-08-26T17:15:22.250Z,42.05
2022-08-26T17:18:30.721Z,41.95
2022-08-26T17:21:38.224Z,42.33
2022-08-26T17:24:44.822Z,42.81
2022-08-26T17:27:51.063Z,42.92
2022-08-26T17:30:59.385Z,43.95
2022-08-26T17:34:06.203Z,44.46
2022-08-26T17:37:12.411Z,44.84
2022-08-26T17:40:21.677Z,45.22
2022-08-26T17:43:28.228Z,45.58
2022-08-26T17:46:38.155Z,45.74
2022-08-26T17:49:44.526Z,46.13
2022-08-26T17:52:50.756Z,46.45
2022-08-26T17:55:57.223Z,46.83
2022-08-26T17:59:04.176Z,47.49
2022-08-26T18:02:10.866Z,47.53
2022-08-26T18:05:18.237Z,48.10
2022-08-26T18:08:24.774Z,48.27
2022-08-26T18:11:32.137Z,48.69
2022-08-26T18:14:38.462Z,48.84
2022-08-26T18:17:45.263Z,49.25
2022-08-26T18:20:51.879Z,49.51
2022-08-26T18:24:13.350Z,49.91
2022-08-26T18:27:20.266Z,50.09
2022-08-26T18:30:26.635Z,50.33
2022-08-26T18:33:32.865Z,50.59
2022-08-26T18:36:40.206Z,50.86
2022-08-26T18:39:46.281Z,51.10
2022-08-26T18:42:53.971Z,51.38
2022-08-26T18:46:06.863Z,51.61
2022-08-26T18:49:14.418Z,51.86
2022-08-26T18:52:20.604Z,52.20
2022-08-26T18:55:27.525Z,52.31
2022-08-26T18:58:33.626Z,52.60
2022-08-26T19:01:41.421Z,52.78
2022-08-26T19:04:47.614Z,52.94
2022-08-26T19:07:53.766Z,53.21
2022-08-26T19:11:00.859Z,53.40
2022-08-26T19:14:08.346Z,53.58
2022-08-26T19:17:14.576Z,53.77
2022-08-26T19:20:21.022Z,53.93
2022-08-26T19:23:32.089Z,54.22
2022-08-26T19:26:39.175Z,54.46
2022-08-26T19:29:46.911Z,54.50
2022-08-26T19:32:53.144Z,54.67
2022-08-26T19:35:59.298Z,54.90
2022-08-26T19:39:06.405Z,55.10
2022-08-26T19:42:14.137Z,55.26
2022-08-26T19:45:25.367Z,55.31
2022-08-26T19:48:31.958Z,55.56
2022-08-26T19:51:38.382Z,55.65
2022-08-26T19:54:44.563Z,55.70
2022-08-26T19:57:52.482Z,56.04
2022-08-26T20:00:58.603Z,56.14
2022-08-26T20:04:05.257Z,56.19
2022-08-26T20:07:15.293Z,56.54
2022-08-26T20:10:25.829Z,56.66
2022-08-26T20:13:32.324Z,56.72
2022-08-26T20:16:38.690Z,56.92
2022-08-26T20:20:02.593Z,57.01
2022-08-26T20:23:08.820Z,57.20
2022-08-26T20:26:15.117Z,57.39
2022-08-26T20:29:22.465Z,57.40
2022-08-26T20:32:31.588Z,57.46
2022-08-26T20:35:41.290Z,57.67
2022-08-26T20:38:47.530Z,57.86
2022-08-26T20:41:53.701Z,57.96
2022-08-26T20:44:59.969Z,58.15
2022-08-26T20:48:06.606Z,58.15
2022-08-26T20:51:13.208Z,58.30
2022-08-26T20:54:22.979Z,58.33
2022-08-26T20:57:31.551Z,58.52
2022-08-26T21:00:38.613Z,58.70
2022-08-26T21:03:45.003Z,58.86
2022-08-26T21:06:53.151Z,58.81
2022-08-26T21:09:59.731Z,59.03
2022-08-26T21:13:06.242Z,59.14
2022-08-26T21:16:12.770Z,59.14
2022-08-26T21:19:20.113Z,59.23
2022-08-26T21:22:26.657Z,59.46
2022-08-26T21:25:32.893Z,59.63
2022-08-26T21:28:40.253Z,59.56
2022-08-26T21:31:47.054Z,59.72
2022-08-26T21:34:57.981Z,59.80
2022-08-26T21:38:04.429Z,59.89
2022-08-26T21:41:13.293Z,59.98
2022-08-26T21:44:20.845Z,60.01
2022-08-26T21:47:27.357Z,60.15
2022-08-26T21:50:33.577Z,60.38
2022-08-26T21:53:40.113Z,60.47
2022-08-26T21:56:48.278Z,60.60
2022-08-26T21:59:54.646Z,60.67
2022-08-26T22:03:00.922Z,60.88
2022-08-26T22:06:07.937Z,60.98
2022-08-26T22:09:15.729Z,60.95
2022-08-26T22:12:21.953Z,60.94
2022-08-26T22:15:28.240Z,61.15
2022-08-26T22:18:34.999Z,61.33
2022-08-26T22:21:41.237Z,61.42
2022-08-26T22:24:47.692Z,61.44
2022-08-26T22:27:53.944Z,61.72
2022-08-26T22:31:00.654Z,61.54
2022-08-26T22:34:08.033Z,61.84
2022-08-26T22:37:14.297Z,61.91
2022-08-26T22:40:20.882Z,61.96
2022-08-26T22:43:28.900Z,62.06
2022-08-26T22:46:36.914Z,62.21
2022-08-26T22:49:43.065Z,62.10
2022-08-26T22:52:49.267Z,62.29
2022-08-26T22:55:55.550Z,62.36
2022-08-26T22:59:01.815Z,62.49
2022-08-26T23:02:08.249Z,62.52
2022-08-26T23:05:18.286Z,62.65
2022-08-26T23:08:25.924Z,62.72
2022-08-26T23:11:32.138Z,62.77
2022-08-26T23:14:40.769Z,62.80
2022-08-26T23:17:47.269Z,62.82
2022-08-26T23:21:02.202Z,63.00
2022-08-26T23:24:10.079Z,63.00
2022-08-26T23:27:16.834Z,63.08
2022-08-26T23:30:26.196Z,63.19
2022-08-26T23:33:46.289Z,63.23
2022-08-26T23:36:53.841Z,63.34
2022-08-26T23:40:03.465Z,63.20
2022-08-26T23:43:12.556Z,63.36
2022-08-26T23:46:18.894Z,63.42
2022-08-26T23:49:25.485Z,63.61
2022-08-26T23:52:49.802Z,63.52
2022-08-26T23:55:56.156Z,63.66
2022-08-26T23:59:02.422Z,63.72
